Time;durP1;ratioP1;P1;durP2;ratioP2;P2;SDS_P1;SDS_P2;PMS_P1;PMS_P2;Temp;Humidity;BMP_temperature;BMP_pressure;BME280_temperature;BME280_humidity;BME280_pressure;Samples;Min_cycle;Max_cycle;Signal;HPM_P1;HPM_P2
2023/07/20 00:01:26;;;;;;;5.30;1.90;;;24.30;59.10;;;;;;5052912;28;20037;-44
2023/07/20 00:03:55;;;;;;;4.78;1.73;;;24.30;59.10;;;;;;5052846;28;20091;-45
2023/07/20 00:06:22;;;;;;;3.65;1.60;;;24.30;59.00;;;;;;5052782;28;20025;-44
2023/07/20 00:08:48;;;;;;;4.35;2.00;;;24.30;59.10;;;;;;5052504;28;20131;-41
2023/07/20 00:11:14;;;;;;;4.18;1.80;;;24.30;59.00;;;;;;5052658;28;20579;-41
2023/07/20 00:13:40;;;;;;;3.60;1.98;;;24.30;59.10;;;;;;5052675;28;20037;-43
2023/07/20 00:16:05;;;;;;;3.70;1.65;;;24.30;59.00;;;;;;5052530;28;20102;-46
2023/07/20 00:18:31;;;;;;;6.38;1.98;;;24.30;59.00;;;;;;5052327;28;20060;-42
2023/07/20 00:20:59;;;;;;;3.60;1.80;;;24.30;59.10;;;;;;5052419;28;20486;-41
2023/07/20 00:23:25;;;;;;;5.40;1.90;;;24.30;59.10;;;;;;5052363;28;20021;-42
2023/07/20 00:25:51;;;;;;;3.38;1.75;;;24.30;59.10;;;;;;5052252;28;20024;-42
2023/07/20 00:28:17;;;;;;;5.32;1.80;;;24.30;59.10;;;;;;5052403;28;20029;-44
2023/07/20 00:30:43;;;;;;;4.10;1.90;;;24.30;59.00;;;;;;5052054;28;20078;-44
2023/07/20 00:33:13;;;;;;;4.55;1.75;;;24.30;59.00;;;;;;5052270;28;20022;-41
2023/07/20 00:35:39;;;;;;;5.40;2.00;;;24.30;59.00;;;;;;5051280;28;20029;-41
2023/07/20 00:38:05;;;;;;;3.80;1.77;;;24.20;58.90;;;;;;5050818;28;20025;-43
2023/07/20 00:40:38;;;;;;;3.13;1.90;;;24.30;59.60;;;;;;5050538;28;20055;-44
2023/07/20 00:43:04;;;;;;;4.68;1.83;;;24.30;59.00;;;;;;5052093;28;20035;-45
2023/07/20 00:45:32;;;;;;;4.63;1.80;;;24.20;59.70;;;;;;5050834;28;20025;-41
2023/07/20 00:47:58;;;;;;;3.80;1.95;;;24.30;59.00;;;;;;5050711;28;20484;-44
2023/07/20 00:50:26;;;;;;;4.13;2.00;;;24.20;59.00;;;;;;5050576;28;20025;-43
2023/07/20 00:52:51;;;;;;;2.75;1.67;;;24.20;59.00;;;;;;5052005;28;20052;-42
2023/07/20 00:55:19;;;;;;;4.50;2.08;;;24.20;59.00;;;;;;5049727;28;20052;-42
2023/07/20 00:57:45;;;;;;;5.15;1.85;;;24.20;59.00;;;;;;5052093;28;20380;-41
2023/07/20 01:00:12;;;;;;;7.03;2.15;;;24.20;59.10;;;;;;5051560;28;20452;-41
2023/07/20 01:02:38;;;;;;;3.35;1.88;;;24.20;59.00;;;;;;5051677;28;20029;-42
2023/07/20 01:05:06;;;;;;;8.70;1.90;;;24.20;59.00;;;;;;5050424;28;20081;-41
2023/07/20 01:07:38;;;;;;;2.83;1.63;;;24.20;59.00;;;;;;5051568;28;20037;-46
2023/07/20 01:10:29;;;;;;;3.92;1.73;;;24.20;59.60;;;;;;5050321;28;20025;-41
2023/07/20 01:12:55;;;;;;;3.10;1.73;;;24.20;59.00;;;;;;5051789;28;20025;-42
2023/07/20 01:15:21;;;;;;;3.20;1.60;;;24.20;59.00;;;;;;5050411;28;20090;-42
2023/07/20 01:17:47;;;;;;;3.08;1.60;;;24.20;59.00;;;;;;5051452;28;20037;-42
2023/07/20 01:20:17;;;;;;;3.83;1.83;;;24.20;59.00;;;;;;5051218;28;20039;-41
2023/07/20 01:23:14;;;;;;;4.38;2.03;;;24.20;59.00;;;;;;5050232;28;20032;-46
2023/07/20 01:25:58;;;;;;;2.88;1.58;;;24.20;59.00;;;;;;5050257;28;20033;-43
2023/07/20 01:28:58;;;;;;;6.13;2.22;;;24.20;58.90;;;;;;5050195;28;20032;-42
2023/07/20 01:31:27;;;;;;;3.05;1.48;;;24.20;59.00;;;;;;5051551;28;20112;-41
2023/07/20 01:33:56;;;;;;;5.45;1.98;;;24.20;59.00;;;;;;5050303;28;20035;-44
2023/07/20 01:36:24;;;;;;;2.40;1.50;;;24.20;58.90;;;;;;5051320;28;20037;-42
2023/07/20 01:38:52;;;;;;;2.65;1.70;;;24.20;58.90;;;;;;5049985;28;20488;-41
2023/07/20 01:41:18;;;;;;;6.10;1.60;;;24.20;58.90;;;;;;5050246;28;20025;-41
2023/07/20 01:43:46;;;;;;;2.33;1.63;;;24.20;58.90;;;;;;5051356;28;20108;-43
2023/07/20 01:46:12;;;;;;;3.17;1.52;;;24.20;58.90;;;;;;5051488;28;20033;-44
2023/07/20 01:48:37;;;;;;;4.28;1.77;;;24.20;58.90;;;;;;5051047;28;20025;-41
2023/07/20 01:51:03;;;;;;;2.92;1.67;;;24.20;58.90;;;;;;5051133;28;20385;-43
2023/07/20 01:53:29;;;;;;;3.95;1.80;;;24.10;58.80;;;;;;5051173;28;20040;-43
2023/07/20 01:55:56;;;;;;;3.83;1.80;;;24.20;58.80;;;;;;5051136;28;20040;-41
2023/07/20 01:58:22;;;;;;;3.72;1.60;;;24.20;58.80;;;;;;5049980;28;20029;-42
2023/07/20 02:00:48;;;;;;;4.80;1.70;;;24.10;58.70;;;;;;5049733;28;20028;-41
2023/07/20 02:03:14;;;;;;;3.67;1.70;;;24.10;58.70;;;;;;5051156;28;20025;-41
2023/07/20 02:05:42;;;;;;;3.47;1.77;;;24.10;58.70;;;;;;5051609;28;20025;-41
2023/07/20 02:08:09;;;;;;;3.58;1.55;;;24.10;58.70;;;;;;5053529;28;20056;-41
2023/07/20 02:10:35;;;;;;;3.45;1.73;;;24.10;58.70;;;;;;5053524;28;20485;-41
2023/07/20 02:13:01;;;;;;;2.47;1.40;;;24.10;58.60;;;;;;5054971;28;20040;-41
2023/07/20 02:15:28;;;;;;;3.42;1.90;;;24.10;58.60;;;;;;5053803;28;20033;-41
2023/07/20 02:17:54;;;;;;;2.78;1.63;;;24.10;58.60;;;;;;5053509;28;20144;-41
2023/07/20 02:20:20;;;;;;;5.70;1.67;;;24.10;58.60;;;;;;5054645;28;20514;-41
2023/07/20 02:22:46;;;;;;;6.00;1.60;;;24.10;58.60;;;;;;5054894;28;20373;-41
2023/07/20 02:25:12;;;;;;;2.83;1.40;;;24.10;58.50;;;;;;5053517;28;20083;-41
2023/07/20 02:27:38;;;;;;;1.98;1.50;;;24.10;58.50;;;;;;5053389;28;20025;-41
2023/07/20 02:30:05;;;;;;;3.25;1.42;;;24.10;58.50;;;;;;5054268;28;20021;-41
2023/07/20 02:32:33;;;;;;;2.83;1.63;;;24.10;58.40;;;;;;5054530;28;20501;-41
2023/07/20 02:34:59;;;;;;;3.05;1.50;;;24.10;58.40;;;;;;5053333;28;20032;-41
2023/07/20 02:37:25;;;;;;;3.13;1.70;;;24.10;58.30;;;;;;5054364;28;20032;-44
2023/07/20 02:39:51;;;;;;;3.05;1.80;;;24.10;58.30;;;;;;5052992;28;20025;-41
2023/07/20 02:42:17;;;;;;;4.50;1.80;;;24.20;58.40;;;;;;5053293;28;20033;-41
2023/07/20 02:44:43;;;;;;;3.83;1.70;;;24.10;58.30;;;;;;5053096;28;20078;-41
2023/07/20 02:47:09;;;;;;;4.03;1.80;;;24.10;58.40;;;;;;5052936;28;20496;-42
2023/07/20 02:49:35;;;;;;;6.45;2.03;;;24.10;58.30;;;;;;5052956;28;20029;-41
2023/07/20 02:52:01;;;;;;;4.18;1.70;;;24.10;58.30;;;;;;5052987;28;20390;-41
2023/07/20 02:54:29;;;;;;;3.22;1.77;;;24.10;58.20;;;;;;5054228;28;20065;-41
2023/07/20 02:56:55;;;;;;;2.13;1.60;;;24.10;58.30;;;;;;5054045;28;20032;-41
2023/07/20 02:59:21;;;;;;;5.07;1.92;;;24.10;58.30;;;;;;5052546;28;20094;-43
2023/07/20 03:01:47;;;;;;;2.95;1.63;;;24.10;58.20;;;;;;5054086;28;20166;-43
2023/07/20 03:04:13;;;;;;;4.68;1.60;;;24.10;58.20;;;;;;5052903;28;20037;-41
2023/07/20 03:06:39;;;;;;;3.72;2.08;;;24.10;58.20;;;;;;5053867;28;20039;-41
2023/07/20 03:09:06;;;;;;;2.58;1.90;;;24.10;58.10;;;;;;5053697;28;20027;-41
2023/07/20 03:11:34;;;;;;;3.92;2.08;;;24.10;58.20;;;;;;5053896;28;20025;-41
2023/07/20 03:13:59;;;;;;;3.13;2.03;;;24.10;58.10;;;;;;5053791;28;20420;-41
2023/07/20 03:16:26;;;;;;;5.13;2.10;;;24.10;58.10;;;;;;5052502;28;20083;-41
2023/07/20 03:18:53;;;;;;;3.97;2.00;;;24.10;58.20;;;;;;5051118;28;20082;-44
2023/07/20 03:21:19;;;;;;;2.45;1.90;;;24.10;58.70;;;;;;5052427;28;20443;-41
2023/07/20 03:23:45;;;;;;;4.10;2.10;;;24.00;58.10;;;;;;5053723;28;20071;-41
2023/07/20 03:26:11;;;;;;;4.20;2.42;;;24.00;58.10;;;;;;5052315;28;20036;-41
2023/07/20 03:28:38;;;;;;;3.28;2.22;;;24.00;58.10;;;;;;5053175;28;20017;-41
2023/07/20 03:31:05;;;;;;;3.90;2.33;;;24.00;58.10;;;;;;5053482;28;20068;-41
2023/07/20 03:33:34;;;;;;;4.35;2.55;;;24.00;58.10;;;;;;5053438;28;20412;-41
2023/07/20 03:36:01;;;;;;;4.60;2.25;;;24.10;58.10;;;;;;5052072;28;20107;-43
2023/07/20 03:38:27;;;;;;;3.70;2.15;;;24.00;58.10;;;;;;5053284;28;20029;-41
2023/07/20 03:40:58;;;;;;;4.68;2.55;;;24.00;58.10;;;;;;5052005;28;20037;-41
2023/07/20 03:43:25;;;;;;;4.18;2.30;;;24.00;58.00;;;;;;5052080;28;20048;-43
2023/07/20 03:45:52;;;;;;;4.88;2.38;;;24.00;58.10;;;;;;5053420;28;20481;-41
2023/07/20 03:48:21;;;;;;;4.47;2.63;;;24.00;58.10;;;;;;5053131;28;20029;-41
2023/07/20 03:50:48;;;;;;;3.50;2.20;;;24.00;58.10;;;;;;5052863;28;20051;-41
2023/07/20 03:53:15;;;;;;;4.22;2.50;;;24.00;58.10;;;;;;5051795;28;20025;-44
2023/07/20 03:55:46;;;;;;;3.83;2.20;;;24.00;58.10;;;;;;5052918;28;20029;-41
2023/07/20 03:58:13;;;;;;;5.32;2.70;;;24.00;58.10;;;;;;5053035;28;20025;-41
2023/07/20 04:00:39;;;;;;;2.95;2.30;;;24.00;58.10;;;;;;5052739;28;20076;-41
2023/07/20 04:03:05;;;;;;;4.03;2.50;;;24.00;58.10;;;;;;5051560;28;20032;-41
2023/07/20 04:05:31;;;;;;;5.38;2.33;;;24.00;58.00;;;;;;5051557;28;20036;-42
2023/07/20 04:07:58;;;;;;;4.65;2.30;;;24.00;58.00;;;;;;5051596;28;20075;-41
2023/07/20 04:10:23;;;;;;;4.43;2.33;;;24.00;58.00;;;;;;5051164;28;20033;-41
2023/07/20 04:12:51;;;;;;;4.10;2.38;;;24.00;58.00;;;;;;5052693;28;20031;-41
2023/07/20 04:15:17;;;;;;;3.30;2.40;;;24.00;58.00;;;;;;5051361;28;20025;-41
2023/07/20 04:17:45;;;;;;;3.58;2.30;;;24.00;58.00;;;;;;5051254;28;20487;-41
2023/07/20 04:20:11;;;;;;;5.25;2.80;;;24.00;58.00;;;;;;5052231;28;20056;-41
2023/07/20 04:22:36;;;;;;;3.15;2.20;;;24.00;58.00;;;;;;5034620;28;20061;-41
2023/07/20 04:25:04;;;;;;;3.22;2.28;;;24.00;58.00;;;;;;5051232;28;20560;-42
2023/07/20 04:27:30;;;;;;;4.78;2.33;;;24.00;58.00;;;;;;5052470;28;20040;-44
2023/07/20 04:29:58;;;;;;;8.15;2.63;;;24.00;58.00;;;;;;5050770;28;20055;-42
2023/07/20 04:32:25;;;;;;;4.47;2.70;;;24.00;58.00;;;;;;5052281;28;20028;-44
2023/07/20 04:34:51;;;;;;;3.30;2.60;;;24.00;57.90;;;;;;5051053;28;20090;-41
2023/07/20 04:37:18;;;;;;;4.00;3.00;;;24.00;58.00;;;;;;5050900;28;20028;-41
2023/07/20 04:39:45;;;;;;;3.38;2.67;;;24.00;57.90;;;;;;5050747;28;20098;-41
2023/07/20 04:42:11;;;;;;;3.85;2.60;;;24.00;58.40;;;;;;5051013;28;20530;-41
2023/07/20 04:44:38;;;;;;;5.03;2.60;;;24.00;57.90;;;;;;5050929;28;20527;-44
2023/07/20 04:47:04;;;;;;;3.58;2.42;;;24.00;57.80;;;;;;5050737;28;20032;-42
2023/07/20 04:49:33;;;;;;;5.03;2.90;;;24.00;57.80;;;;;;5050514;28;20338;-41
2023/07/20 04:51:59;;;;;;;5.32;2.78;;;24.00;57.80;;;;;;5050713;28;20491;-41
2023/07/20 04:54:27;;;;;;;6.00;3.15;;;24.00;57.80;;;;;;5050822;28;20032;-43
2023/07/20 04:56:53;;;;;;;4.43;2.85;;;24.00;57.70;;;;;;5050653;28;20037;-41
2023/07/20 04:59:20;;;;;;;3.70;2.50;;;24.00;57.70;;;;;;5050368;28;20032;-42
2023/07/20 05:01:46;;;;;;;3.92;2.45;;;24.00;57.60;;;;;;5050528;28;20522;-42
2023/07/20 05:04:13;;;;;;;3.83;2.40;;;24.00;57.70;;;;;;5050542;28;20028;-41
2023/07/20 05:06:39;;;;;;;3.45;2.60;;;24.00;57.60;;;;;;5051773;28;20029;-41
2023/07/20 05:09:06;;;;;;;4.72;2.50;;;24.00;57.60;;;;;;5050304;28;20052;-41
2023/07/20 05:11:32;;;;;;;3.92;2.42;;;24.00;57.60;;;;;;5050422;28;20519;-42
2023/07/20 05:14:00;;;;;;;5.45;2.80;;;24.00;57.60;;;;;;5050445;28;20107;-41
2023/07/20 05:16:26;;;;;;;4.38;2.63;;;24.00;57.50;;;;;;5050346;28;20107;-41
2023/07/20 05:18:52;;;;;;;4.80;2.58;;;24.00;57.50;;;;;;5050003;28;20033;-41
2023/07/20 05:21:18;;;;;;;3.97;2.60;;;24.00;57.40;;;;;;5050213;28;20036;-41
2023/07/20 05:23:45;;;;;;;4.13;2.53;;;24.00;57.50;;;;;;5050291;28;20025;-42
2023/07/20 05:26:13;;;;;;;4.75;2.70;;;24.00;57.40;;;;;;5050246;28;20485;-41
2023/07/20 05:28:38;;;;;;;3.03;2.38;;;24.00;57.40;;;;;;5051309;28;20032;-41
2023/07/20 05:31:05;;;;;;;3.03;2.38;;;24.00;57.50;;;;;;5051435;28;20029;-41
2023/07/20 05:33:31;;;;;;;7.28;2.65;;;24.00;57.40;;;;;;5051811;28;20103;-42
2023/07/20 05:35:56;;;;;;;5.47;2.55;;;24.00;57.50;;;;;;5051411;28;20064;-41
2023/07/20 05:38:22;;;;;;;7.57;3.30;;;24.00;57.50;;;;;;5050227;28;20033;-42
2023/07/20 05:40:48;;;;;;;5.90;3.03;;;24.00;57.30;;;;;;5051872;28;20087;-42
2023/07/20 05:43:14;;;;;;;10.23;3.42;;;23.90;57.40;;;;;;5055512;28;20431;-41
2023/07/20 05:45:44;;;;;;;12.15;3.75;;;23.70;58.00;;;;;;5055476;28;20052;-41
2023/07/20 05:48:11;;;;;;;13.52;2.97;;;23.70;58.00;;;;;;5086665;22;20477;-51
2023/07/20 05:50:38;;;;;;;8.10;3.50;;;23.70;58.10;;;;;;5055168;28;20116;-53
2023/07/20 05:53:04;;;;;;;19.13;4.43;;;23.70;58.50;;;;;;5055352;28;20514;-52
2023/07/20 05:55:29;;;;;;;13.50;3.92;;;23.60;59.00;;;;;;5055375;28;20025;-53
2023/07/20 05:57:56;;;;;;;10.45;5.00;;;23.60;59.20;;;;;;5055424;28;20102;-53
2023/07/20 06:00:26;;;;;;;10.75;3.58;;;23.50;59.40;;;;;;5054988;28;20108;-50
2023/07/20 06:02:54;;;;;;;5.63;3.20;;;23.50;59.50;;;;;;5055262;28;20033;-52
2023/07/20 06:05:22;;;;;;;6.60;4.63;;;23.50;59.80;;;;;;5055364;28;20083;-52
2023/07/20 06:07:47;;;;;;;9.07;3.65;;;23.50;60.40;;;;;;5055133;28;20021;-51
2023/07/20 06:10:13;;;;;;;6.95;3.20;;;23.50;60.20;;;;;;5055014;28;20108;-53
2023/07/20 06:12:39;;;;;;;5.53;3.00;;;23.50;60.10;;;;;;5055216;28;20369;-51
2023/07/20 06:15:06;;;;;;;13.68;3.72;;;23.50;59.80;;;;;;5055025;28;20033;-51
2023/07/20 06:17:32;;;;;;;11.75;3.25;;;23.60;59.50;;;;;;5054862;28;20523;-50
2023/07/20 06:19:58;;;;;;;18.38;3.42;;;23.70;60.20;;;;;;5067511;28;20505;-47
2023/07/20 17:03:14;;;;;;;4.32;1.65;;;23.80;54.80;;;;;;5066519;28;20460;-47
2023/07/20 17:05:42;;;;;;;4.07;1.65;;;23.70;51.20;;;;;;5068500;28;20032;-47
2023/07/20 17:08:07;;;;;;;5.05;1.50;;;23.70;52.40;;;;;;5068614;28;20024;-47
2023/07/20 17:10:33;;;;;;;3.53;1.63;;;23.80;51.40;;;;;;5068546;28;20490;-47
2023/07/20 17:12:59;;;;;;;3.17;1.85;;;23.80;52.10;;;;;;5068207;28;20032;-48
2023/07/20 17:15:25;;;;;;;3.33;1.60;;;23.80;50.10;;;;;;5067483;28;20057;-48
2023/07/20 17:17:51;;;;;;;5.35;1.90;;;23.70;50.70;;;;;;5068660;28;20388;-48
2023/07/20 17:20:18;;;;;;;7.07;1.88;;;23.70;50.90;;;;;;5068531;28;20150;-47
2023/07/20 17:22:44;;;;;;;3.45;1.75;;;23.70;51.10;;;;;;5067970;28;20021;-49
2023/07/20 17:25:11;;;;;;;5.45;1.52;;;23.70;49.80;;;;;;5068386;28;20087;-48
2023/07/20 17:27:37;;;;;;;5.93;1.63;;;23.70;50.60;;;;;;5068311;28;20048;-48
2023/07/20 17:30:04;;;;;;;2.58;1.30;;;23.70;50.70;;;;;;5066982;28;20124;-48
2023/07/20 17:32:30;;;;;;;2.90;1.50;;;23.70;49.60;;;;;;5067668;28;20037;-48
2023/07/20 17:34:56;;;;;;;4.50;1.70;;;23.70;48.80;;;;;;5068151;28;20044;-47
2023/07/20 17:37:22;;;;;;;8.90;2.00;;;23.60;49.40;;;;;;5067861;28;20408;-48
2023/07/20 17:39:50;;;;;;;14.65;1.70;;;23.60;48.60;;;;;;5047811;28;20022;-51
2023/07/20 17:42:16;;;;;;;12.23;2.13;;;23.60;49.10;;;;;;5037776;28;20121;-50
2023/07/20 17:44:42;;;;;;;6.10;1.40;;;23.60;48.70;;;;;;5047767;28;20033;-48
2023/07/20 17:47:08;;;;;;;4.43;1.40;;;23.60;47.80;;;;;;5047296;28;20511;-48
2023/07/20 17:49:35;;;;;;;10.32;1.92;;;23.60;47.80;;;;;;5047690;28;20503;-49
2023/07/20 17:52:01;;;;;;;10.48;1.95;;;23.60;48.30;;;;;;5045492;28;20083;-51
2023/07/20 17:54:27;;;;;;;9.23;1.50;;;23.60;47.70;;;;;;5047659;28;20037;-52
2023/07/20 17:56:53;;;;;;;7.43;1.70;;;23.60;47.10;;;;;;5042066;28;20156;-50
2023/07/20 17:59:19;;;;;;;4.43;1.88;;;23.50;47.90;;;;;;5039961;28;20083;-48
2023/07/20 18:01:45;;;;;;;10.25;2.45;;;23.50;47.30;;;;;;5040948;28;20056;-49
2023/07/20 18:04:11;;;;;;;8.18;1.83;;;23.50;46.90;;;;;;5028400;28;20100;-49
2023/07/20 18:06:37;;;;;;;13.65;2.47;;;23.50;45.30;;;;;;5031819;28;20084;-50
2023/07/20 18:09:02;;;;;;;7.95;2.58;;;23.60;46.60;;;;;;5034100;28;20060;-49
2023/07/20 18:11:28;;;;;;;6.82;2.28;;;23.50;46.70;;;;;;5033669;28;20033;-47
2023/07/20 18:13:54;;;;;;;5.65;2.28;;;23.60;46.90;;;;;;5034381;28;20029;-51
2023/07/20 18:16:20;;;;;;;9.52;2.25;;;23.60;47.80;;;;;;5034149;28;20025;-49
2023/07/20 18:18:45;;;;;;;9.13;2.00;;;23.70;48.20;;;;;;5034202;28;20033;-50
2023/07/20 18:21:11;;;;;;;5.45;2.10;;;23.70;48.40;;;;;;5033997;28;20033;-50
2023/07/20 18:23:37;;;;;;;8.68;2.10;;;23.70;48.10;;;;;;5033726;28;20033;-48
2023/07/20 18:26:03;;;;;;;7.30;2.22;;;23.70;48.70;;;;;;5033891;28;20373;-52
2023/07/20 18:28:29;;;;;;;6.70;2.40;;;23.80;49.10;;;;;;5033873;28;20049;-54
2023/07/20 18:30:54;;;;;;;5.68;2.22;;;23.80;49.10;;;;;;5033825;28;20163;-49
2023/07/20 18:33:20;;;;;;;5.93;2.10;;;23.80;49.50;;;;;;5033527;28;20021;-48
2023/07/20 18:35:46;;;;;;;5.47;2.25;;;23.80;48.90;;;;;;5034009;28;20033;-49
2023/07/20 18:38:15;;;;;;;4.32;1.95;;;23.80;48.20;;;;;;5033753;28;20023;-47
2023/07/20 18:40:41;;;;;;;6.75;2.30;;;23.80;49.40;;;;;;5033765;28;20025;-52
2023/07/20 18:43:10;;;;;;;4.63;2.27;;;23.80;49.10;;;;;;5033432;28;20065;-49
2023/07/20 18:45:35;;;;;;;8.00;2.60;;;23.80;49.30;;;;;;5033684;28;20308;-50
2023/07/20 18:48:04;;;;;;;6.93;2.10;;;23.80;49.50;;;;;;5033657;28;20022;-49
2023/07/20 18:50:31;;;;;;;8.02;2.70;;;23.80;49.20;;;;;;5033458;28;20025;-50
2023/07/20 18:53:00;;;;;;;10.07;2.20;;;23.80;49.50;;;;;;5032070;28;20060;-52
2023/07/20 18:55:27;;;;;;;6.72;2.38;;;23.80;49.70;;;;;;5033498;28;20148;-49
2023/07/20 18:57:53;;;;;;;14.48;2.35;;;23.80;49.90;;;;;;5033593;28;20496;-52
2023/07/20 19:00:19;;;;;;;4.93;2.15;;;23.80;49.90;;;;;;5033442;28;20029;-51
2023/07/20 19:02:45;;;;;;;8.32;2.13;;;23.80;50.10;;;;;;5032968;28;20037;-49
2023/07/20 19:05:11;;;;;;;5.60;2.00;;;23.80;50.10;;;;;;5033261;28;20111;-50
2023/07/20 19:07:38;;;;;;;3.38;2.03;;;23.80;50.10;;;;;;5033240;28;20033;-54
2023/07/20 19:10:05;;;;;;;6.28;2.22;;;23.80;50.30;;;;;;5033191;28;20029;-54
2023/07/20 19:12:31;;;;;;;2.92;1.80;;;23.80;50.40;;;;;;5032410;28;20489;-52
2023/07/20 19:14:56;;;;;;;6.82;2.35;;;23.80;50.40;;;;;;5032095;28;20040;-51
2023/07/20 19:17:25;;;;;;;3.63;1.98;;;23.80;50.60;;;;;;5033020;28;20026;-49
2023/07/20 19:19:51;;;;;;;4.22;2.17;;;23.80;50.60;;;;;;5032933;28;20026;-47
2023/07/20 19:22:17;;;;;;;4.28;2.00;;;23.80;50.70;;;;;;5032612;28;20027;-52
2023/07/20 19:24:43;;;;;;;5.07;2.03;;;23.80;50.70;;;;;;5032918;28;20021;-47
2023/07/20 19:27:08;;;;;;;6.82;3.05;;;23.80;50.80;;;;;;5032822;28;20036;-47
2023/07/20 19:29:35;;;;;;;4.00;1.75;;;23.80;50.80;;;;;;5032865;28;20029;-47
2023/07/20 19:32:01;;;;;;;3.92;2.17;;;23.70;50.80;;;;;;5032261;28;20052;-52
2023/07/20 19:34:27;;;;;;;5.63;2.10;;;23.80;51.00;;;;;;5032693;28;20029;-47
2023/07/20 19:36:52;;;;;;;3.60;1.80;;;23.80;51.10;;;;;;5032658;28;20021;-50
2023/07/20 19:39:18;;;;;;;4.53;1.85;;;23.80;51.20;;;;;;5032576;28;20105;-53
2023/07/20 19:41:44;;;;;;;3.38;1.80;;;23.80;51.20;;;;;;5032484;28;20053;-52
2023/07/20 19:44:10;;;;;;;7.03;2.00;;;23.80;51.20;;;;;;5032718;28;20059;-50
2023/07/20 19:46:38;;;;;;;5.82;2.08;;;23.80;51.30;;;;;;5032414;28;20022;-47
2023/07/20 19:49:04;;;;;;;2.63;1.67;;;23.80;51.90;;;;;;5032369;28;20542;-48
2023/07/20 19:51:30;;;;;;;3.60;1.80;;;23.80;51.30;;;;;;5031791;28;20033;-48
2023/07/20 19:53:57;;;;;;;3.33;1.90;;;23.80;51.40;;;;;;5032293;28;20029;-47
2023/07/20 19:56:24;;;;;;;4.25;2.00;;;23.80;51.40;;;;;;5032277;28;20037;-47
2023/07/20 19:58:50;;;;;;;4.00;1.73;;;23.80;51.50;;;;;;5032195;28;20052;-49
2023/07/20 20:01:16;;;;;;;4.03;2.03;;;23.80;51.50;;;;;;5031943;28;20064;-50
2023/07/20 20:03:41;;;;;;;2.83;2.05;;;23.80;51.50;;;;;;5032148;28;20439;-51
2023/07/20 20:06:09;;;;;;;5.95;2.00;;;23.80;51.60;;;;;;5032043;28;20029;-52
2023/07/20 20:08:36;;;;;;;3.25;1.95;;;23.80;51.60;;;;;;5032157;28;20116;-47
2023/07/20 20:11:02;;;;;;;3.65;1.70;;;23.80;51.60;;;;;;5031984;28;20559;-53
2023/07/20 20:13:30;;;;;;;3.17;1.90;;;23.80;51.60;;;;;;5031359;28;20105;-49
2023/07/20 20:15:58;;;;;;;5.70;1.73;;;23.80;51.70;;;;;;5032045;28;20034;-49
2023/07/20 20:18:28;;;;;;;4.25;2.03;;;23.80;51.70;;;;;;5031878;28;20033;-47
2023/07/20 20:20:58;;;;;;;3.15;2.00;;;23.80;51.90;;;;;;5032296;28;20033;-49
2023/07/20 20:23:24;;;;;;;2.80;1.73;;;23.80;51.70;;;;;;5031624;28;20065;-48
2023/07/20 20:25:51;;;;;;;3.17;1.60;;;23.80;51.70;;;;;;5031584;28;20500;-47
2023/07/20 20:28:17;;;;;;;2.97;1.63;;;23.80;51.70;;;;;;5031809;28;20037;-52
2023/07/20 20:30:48;;;;;;;2.92;1.70;;;23.80;51.80;;;;;;5031583;28;20484;-50
2023/07/20 20:33:18;;;;;;;5.65;1.65;;;23.80;51.90;;;;;;5031327;28;20125;-47
2023/07/20 20:35:51;;;;;;;4.05;1.90;;;23.80;51.90;;;;;;5031873;28;20034;-48
2023/07/20 20:38:21;;;;;;;4.28;1.88;;;23.80;51.90;;;;;;5031726;28;20112;-49
2023/07/20 20:40:51;;;;;;;4.95;1.67;;;23.80;51.90;;;;;;5031723;28;20022;-51
2023/07/20 20:43:17;;;;;;;5.50;1.63;;;23.80;51.90;;;;;;5031115;28;20029;-52
2023/07/20 20:45:43;;;;;;;3.25;1.52;;;23.80;52.00;;;;;;5031728;28;20500;-47
2023/07/20 20:48:09;;;;;;;3.03;1.70;;;23.80;52.00;;;;;;5031495;28;20108;-47
2023/07/20 20:50:36;;;;;;;2.50;1.63;;;23.80;52.10;;;;;;5031460;28;20045;-54
2023/07/20 20:53:03;;;;;;;3.25;1.70;;;23.80;52.10;;;;;;5031203;28;20083;-48
2023/07/20 20:55:29;;;;;;;2.65;1.70;;;23.80;52.10;;;;;;5031479;28;20021;-54
2023/07/20 20:57:55;;;;;;;2.13;1.30;;;23.80;52.10;;;;;;5031433;28;20026;-53
2023/07/20 21:00:22;;;;;;;3.78;1.85;;;23.80;52.20;;;;;;5031457;28;20022;-50
2023/07/20 21:02:48;;;;;;;3.15;1.88;;;23.80;52.20;;;;;;5031004;28;20041;-52
2023/07/20 21:05:14;;;;;;;3.55;1.80;;;23.80;52.20;;;;;;5031554;28;20030;-51
2023/07/20 21:07:39;;;;;;;3.97;1.60;;;23.80;52.20;;;;;;5031461;28;20033;-50
2023/07/20 21:10:07;;;;;;;4.78;2.13;;;23.80;52.20;;;;;;5031336;28;20557;-53
2023/07/20 21:12:33;;;;;;;4.82;1.67;;;23.80;52.40;;;;;;5024297;28;20029;-49
2023/07/20 21:15:05;;;;;;;6.97;1.92;;;23.80;53.30;;;;;;5019710;28;20101;-48
2023/07/20 21:17:33;;;;;;;11.68;1.67;;;23.80;52.60;;;;;;5021789;28;20021;-48
2023/07/20 21:19:59;;;;;;;7.45;1.80;;;23.80;52.60;;;;;;5030860;28;20026;-52
2023/07/20 21:22:25;;;;;;;14.63;1.48;;;23.80;51.70;;;;;;5029128;28;20041;-47
2023/07/20 21:24:51;;;;;;;3.20;1.15;;;23.70;49.60;;;;;;5024731;28;20026;-54
2023/07/20 21:27:17;;;;;;;11.75;1.42;;;23.60;49.30;;;;;;5031159;28;20033;-51
2023/07/20 21:29:42;;;;;;;7.03;1.52;;;23.60;49.80;;;;;;5031188;28;20409;-53
2023/07/20 21:32:08;;;;;;;2.92;1.15;;;23.60;49.20;;;;;;5023106;28;20025;-48
2023/07/20 21:34:35;;;;;;;7.13;1.27;;;23.50;49.30;;;;;;5031039;28;20053;-50
2023/07/20 21:37:02;;;;;;;5.60;1.48;;;23.50;48.50;;;;;;5029661;28;20136;-51
2023/07/20 21:39:28;;;;;;;3.80;1.33;;;23.50;48.60;;;;;;5034240;28;20030;-47
2023/07/20 21:41:54;;;;;;;7.75;1.35;;;23.50;48.80;;;;;;5028797;28;20026;-51
2023/07/20 21:44:20;;;;;;;4.93;1.40;;;23.50;48.50;;;;;;5030105;28;20033;-51
2023/07/20 21:46:46;;;;;;;3.38;1.02;;;23.50;48.70;;;;;;5028974;28;20064;-51
2023/07/20 21:49:11;;;;;;;7.15;1.48;;;23.40;47.90;;;;;;5033334;28;20065;-52
2023/07/20 21:51:37;;;;;;;10.90;1.83;;;23.40;48.50;;;;;;5026835;28;20180;-51
2023/07/20 21:54:04;;;;;;;11.63;1.55;;;23.40;48.40;;;;;;5030358;28;20033;-53
2023/07/20 21:56:31;;;;;;;15.63;1.88;;;23.30;48.40;;;;;;5028078;28;20397;-52
2023/07/20 21:58:56;;;;;;;13.50;1.90;;;23.30;48.50;;;;;;5031907;28;20075;-52
2023/07/20 22:01:22;;;;;;;12.70;2.20;;;23.30;48.50;;;;;;5029429;28;20041;-51
2023/07/20 22:03:48;;;;;;;6.53;1.40;;;23.40;48.80;;;;;;5031901;28;20040;-53
2023/07/20 22:06:14;;;;;;;10.63;1.88;;;23.40;49.10;;;;;;5031030;28;20060;-51
2023/07/20 22:08:40;;;;;;;9.88;1.67;;;23.50;49.40;;;;;;5031581;28;20083;-51
2023/07/20 22:11:07;;;;;;;3.80;1.33;;;23.50;49.50;;;;;;5028264;28;20447;-50
2023/07/20 22:13:34;;;;;;;8.15;2.17;;;23.50;49.60;;;;;;5029052;28;20519;-52
2023/07/20 22:16:03;;;;;;;6.30;1.90;;;23.50;49.70;;;;;;5031391;28;20076;-51
2023/07/20 22:18:29;;;;;;;4.20;1.50;;;23.60;49.80;;;;;;5027374;28;20025;-50
2023/07/20 22:20:58;;;;;;;4.10;1.30;;;23.60;49.80;;;;;;5030062;28;20026;-48
2023/07/20 22:23:25;;;;;;;8.88;1.75;;;23.60;49.90;;;;;;5029764;28;20030;-49
2023/07/20 22:25:51;;;;;;;9.98;1.60;;;23.60;50.00;;;;;;5029879;28;20053;-52
2023/07/20 22:28:18;;;;;;;4.97;1.80;;;23.60;50.10;;;;;;5029375;28;20026;-50
2023/07/20 22:30:44;;;;;;;4.90;1.70;;;23.60;50.10;;;;;;5030875;28;20057;-51
2023/07/20 22:33:10;;;;;;;10.35;1.50;;;23.60;50.20;;;;;;5030186;28;20543;-48
2023/07/20 22:35:36;;;;;;;9.50;2.05;;;23.60;50.20;;;;;;5030221;28;20108;-49
2023/07/20 22:38:02;;;;;;;6.03;1.52;;;23.60;50.30;;;;;;5027530;28;20080;-50
2023/07/20 22:40:29;;;;;;;8.73;1.83;;;23.60;50.40;;;;;;5029735;28;20068;-50
2023/07/20 22:42:55;;;;;;;6.03;1.52;;;23.60;50.50;;;;;;5028383;28;20029;-49
2023/07/20 22:45:20;;;;;;;10.88;1.70;;;23.60;50.70;;;;;;5028908;28;20116;-50
2023/07/20 22:47:46;;;;;;;12.43;1.73;;;23.60;50.80;;;;;;5029621;28;20496;-54
2023/07/20 22:50:13;;;;;;;12.82;1.45;;;23.70;51.00;;;;;;5029336;28;20037;-54
2023/07/20 22:52:42;;;;;;;15.73;1.70;;;23.70;51.10;;;;;;5021538;28;20512;-51
2023/07/20 22:55:08;;;;;;;12.48;2.08;;;23.60;51.10;;;;;;5028030;28;20030;-54
2023/07/20 22:57:34;;;;;;;4.20;1.35;;;23.60;51.00;;;;;;5030221;28;20021;-53
2023/07/20 23:00:08;;;;;;;15.63;2.08;;;23.60;51.00;;;;;;5027387;28;20370;-51
2023/07/20 23:02:36;;;;;;;6.68;1.75;;;23.70;51.00;;;;;;5026292;28;20033;-48
2023/07/20 23:05:06;;;;;;;9.13;1.70;;;23.70;51.10;;;;;;5025936;28;20075;-50
2023/07/20 23:07:32;;;;;;;6.75;1.60;;;23.70;51.10;;;;;;5029109;28;20504;-51
2023/07/20 23:09:58;;;;;;;6.03;1.50;;;23.70;51.10;;;;;;5030483;28;20461;-49
2023/07/20 23:12:24;;;;;;;5.50;1.65;;;23.70;51.10;;;;;;5028869;28;20068;-49
2023/07/20 23:14:50;;;;;;;7.18;1.70;;;23.70;51.10;;;;;;5054766;23;20029;-45
2023/07/20 23:17:16;;;;;;;8.32;1.77;;;23.70;51.20;;;;;;5011920;28;20485;-42
2023/07/20 23:19:42;;;;;;;5.43;1.63;;;23.70;51.20;;;;;;5013574;28;20079;-46
2023/07/20 23:22:08;;;;;;;12.48;1.63;;;23.70;51.30;;;;;;5009709;28;20075;-42
2023/07/20 23:24:34;;;;;;;9.50;2.15;;;23.70;51.30;;;;;;5026316;28;20083;-43